createdAt,value
2019-05-29T00:01:47.083Z,11.40
2019-05-29T00:03:51.911Z,11.30
2019-05-29T00:05:56.691Z,11.30
2019-05-29T00:08:01.472Z,11.20
2019-05-29T00:10:08.809Z,11.20
2019-05-29T00:12:19.203Z,11.20
2019-05-29T00:14:27.179Z,11.20
2019-05-29T00:16:26.358Z,11.20
2019-05-29T00:18:31.315Z,11.10
2019-05-29T00:20:36.183Z,11.10
2019-05-29T00:22:41.732Z,11.10
2019-05-29T00:24:46.574Z,11.00
2019-05-29T00:26:51.455Z,11.00
2019-05-29T00:28:56.323Z,11.00
2019-05-29T00:31:01.065Z,10.90
2019-05-29T00:33:06.223Z,10.90
2019-05-29T00:35:12.288Z,10.90
2019-05-29T00:37:17.229Z,10.90
2019-05-29T00:39:22.528Z,10.90
2019-05-29T00:41:27.358Z,11.00
2019-05-29T00:43:32.203Z,10.90
2019-05-29T00:45:37.011Z,10.90
2019-05-29T00:47:42.466Z,10.80
2019-05-29T00:49:47.391Z,10.80
2019-05-29T00:51:52.153Z,10.80
2019-05-29T00:53:57.130Z,10.70
2019-05-29T00:56:01.979Z,10.70
2019-05-29T00:58:06.879Z,10.60
2019-05-29T01:00:13.158Z,10.60
2019-05-29T01:02:19.716Z,10.60
2019-05-29T01:04:24.736Z,10.50
2019-05-29T01:06:30.547Z,10.50
2019-05-29T01:08:35.421Z,10.50
2019-05-29T01:10:40.173Z,10.50
2019-05-29T01:12:45.038Z,10.50
2019-05-29T01:14:50.593Z,10.50
2019-05-29T01:16:55.904Z,10.40
2019-05-29T01:19:20.260Z,10.40
2019-05-29T01:21:25.606Z,10.40
2019-05-29T01:23:30.825Z,10.40
2019-05-29T01:25:35.589Z,10.20
2019-05-29T01:27:40.546Z,10.20
2019-05-29T01:29:45.479Z,10.20
2019-05-29T01:31:50.331Z,10.10
2019-05-29T01:33:55.282Z,10.10
2019-05-29T01:36:00.115Z,10.10
2019-05-29T01:38:04.929Z,10.00
2019-05-29T01:40:19.271Z,9.90
2019-05-29T01:42:17.272Z,9.90
2019-05-29T01:44:22.032Z,9.90
2019-05-29T01:46:27.803Z,9.90
2019-05-29T01:48:32.808Z,9.80
2019-05-29T01:50:37.587Z,9.80
2019-05-29T01:52:42.428Z,9.90
2019-05-29T01:54:47.642Z,9.80
2019-05-29T01:56:52.571Z,9.80
2019-05-29T01:58:57.341Z,9.80
2019-05-29T02:01:02.219Z,9.80
2019-05-29T02:03:07.453Z,9.80
2019-05-29T02:05:12.638Z,9.80
2019-05-29T02:07:18.011Z,9.80
2019-05-29T02:09:24.258Z,9.80
2019-05-29T02:11:32.081Z,9.80
2019-05-29T02:13:35.556Z,9.70
2019-05-29T02:15:40.280Z,9.50
2019-05-29T02:17:45.439Z,9.50
2019-05-29T02:19:50.679Z,9.50
2019-05-29T02:21:55.894Z,9.40
2019-05-29T02:24:00.674Z,9.40
2019-05-29T02:26:05.578Z,9.30
2019-05-29T02:28:10.323Z,9.20
2019-05-29T02:30:17.870Z,9.20
2019-05-29T02:32:23.484Z,9.10
2019-05-29T02:34:29.902Z,9.10
2019-05-29T02:36:34.860Z,9.10
2019-05-29T02:38:39.681Z,9.20
2019-05-29T02:40:44.761Z,9.20
2019-05-29T02:42:49.535Z,9.30
2019-05-29T02:44:54.297Z,9.30
2019-05-29T02:46:59.447Z,9.20
2019-05-29T02:49:04.406Z,9.30
2019-05-29T02:51:12.159Z,9.30
2019-05-29T02:53:16.545Z,9.30
2019-05-29T02:55:22.571Z,9.20
2019-05-29T02:57:28.964Z,9.20
2019-05-29T02:59:34.660Z,9.30
2019-05-29T03:01:40.181Z,9.30
2019-05-29T03:03:45.342Z,9.20
2019-05-29T03:05:50.701Z,9.10
2019-05-29T03:07:55.823Z,9.10
2019-05-29T03:10:00.737Z,8.90
2019-05-29T03:12:05.638Z,9.00
2019-05-29T03:14:10.928Z,8.90
2019-05-29T03:16:15.770Z,8.90
2019-05-29T03:18:20.657Z,9.00
2019-05-29T03:20:25.986Z,9.00
2019-05-29T03:22:33.138Z,8.90
2019-05-29T03:24:38.511Z,9.00
2019-05-29T03:26:44.761Z,8.90
2019-05-29T03:28:49.921Z,8.80
2019-05-29T03:30:54.665Z,8.80
2019-05-29T03:32:59.530Z,8.70
2019-05-29T03:35:04.560Z,8.80
2019-05-29T03:37:09.999Z,8.80
2019-05-29T03:39:14.898Z,8.90
2019-05-29T03:41:20.585Z,9.00
2019-05-29T03:43:26.166Z,9.00
2019-05-29T03:45:35.760Z,8.90
2019-05-29T03:47:41.144Z,8.80
2019-05-29T03:49:46.257Z,8.80
2019-05-29T03:51:51.073Z,8.80
2019-05-29T03:53:55.878Z,8.80
2019-05-29T03:56:00.740Z,8.90
2019-05-29T03:58:05.628Z,8.80
2019-05-29T04:00:12.063Z,8.80
2019-05-29T04:02:16.819Z,8.90
2019-05-29T04:04:21.643Z,8.90
2019-05-29T04:06:26.989Z,9.00
2019-05-29T04:08:33.594Z,9.00
2019-05-29T04:10:39.880Z,9.00
2019-05-29T04:12:44.797Z,8.90
2019-05-29T04:14:50.852Z,8.80
2019-05-29T04:16:59.737Z,8.80
2019-05-29T04:19:04.960Z,8.80
2019-05-29T04:21:12.513Z,8.80
2019-05-29T04:23:19.772Z,8.80
2019-05-29T04:25:30.198Z,8.70
2019-05-29T04:27:38.294Z,8.70
2019-05-29T04:29:44.181Z,8.70
2019-05-29T04:31:49.074Z,8.80
2019-05-29T04:33:53.944Z,8.80
2019-05-29T04:35:59.143Z,8.90
2019-05-29T04:38:04.604Z,8.90
2019-05-29T04:40:09.558Z,8.90
2019-05-29T04:42:14.314Z,9.00
2019-05-29T04:44:19.075Z,9.10
2019-05-29T04:46:23.839Z,9.20
2019-05-29T04:48:29.464Z,9.30
2019-05-29T04:50:36.446Z,9.40
2019-05-29T04:52:41.752Z,9.50
2019-05-29T04:54:46.892Z,9.60
2019-05-29T04:56:51.685Z,9.70
2019-05-29T04:58:56.471Z,9.80
2019-05-29T05:01:01.268Z,9.90
2019-05-29T05:03:06.380Z,10.00
2019-05-29T05:05:11.937Z,10.10
2019-05-29T05:07:17.192Z,10.20
2019-05-29T05:09:22.062Z,10.40
2019-05-29T05:11:27.976Z,10.60
2019-05-29T05:13:33.475Z,10.70
2019-05-29T05:15:40.122Z,10.80
2019-05-29T05:17:45.144Z,10.80
2019-05-29T05:19:50.883Z,10.90
2019-05-29T05:21:55.661Z,11.10
2019-05-29T05:24:00.649Z,11.30
2019-05-29T05:26:06.614Z,11.60
2019-05-29T05:28:11.465Z,11.80
2019-05-29T05:30:17.616Z,12.00
2019-05-29T05:32:22.436Z,12.30
2019-05-29T05:34:27.243Z,12.60
2019-05-29T05:36:32.679Z,12.80
2019-05-29T05:38:38.797Z,13.00
2019-05-29T05:40:43.757Z,13.30
2019-05-29T05:42:48.635Z,13.40
2019-05-29T05:44:53.576Z,13.70
2019-05-29T05:46:58.819Z,13.90
2019-05-29T05:49:04.113Z,14.10
2019-05-29T05:51:09.270Z,14.30
2019-05-29T05:53:14.110Z,14.50
2019-05-29T05:55:19.060Z,14.60
2019-05-29T05:57:24.001Z,14.70
2019-05-29T05:59:28.859Z,14.90
2019-05-29T06:01:33.843Z,15.00
2019-05-29T06:03:40.455Z,15.20
2019-05-29T06:05:45.134Z,15.30
2019-05-29T06:07:49.959Z,15.40
2019-05-29T06:09:54.777Z,15.50
2019-05-29T06:11:59.529Z,15.60
2019-05-29T06:14:05.668Z,15.90
2019-05-29T06:16:11.048Z,16.10
2019-05-29T06:18:21.447Z,16.40
2019-05-29T06:20:22.521Z,16.60
2019-05-29T06:22:27.398Z,16.70
2019-05-29T06:24:33.442Z,16.80
2019-05-29T06:26:38.980Z,17.00
2019-05-29T06:28:43.893Z,17.10
2019-05-29T06:30:48.705Z,17.20
2019-05-29T06:32:53.562Z,17.30
2019-05-29T06:34:58.368Z,17.40
2019-05-29T06:37:03.608Z,17.50
2019-05-29T06:39:09.003Z,17.50
2019-05-29T06:41:13.774Z,17.70
2019-05-29T06:43:23.600Z,17.80
2019-05-29T06:45:33.733Z,18.00
2019-05-29T06:47:38.884Z,18.20
2019-05-29T06:49:46.236Z,18.40
2019-05-29T06:51:51.111Z,18.60
2019-05-29T06:53:55.875Z,18.80
2019-05-29T06:58:16.094Z,19.10
2019-05-29T07:00:34.516Z,19.20
2019-05-29T07:02:27.542Z,19.20
2019-05-29T07:04:32.397Z,19.30
2019-05-29T07:06:37.247Z,19.60
2019-05-29T07:08:45.154Z,19.60
2019-05-29T07:10:48.569Z,19.70
2019-05-29T07:12:53.808Z,19.90
2019-05-29T07:14:58.622Z,20.00
2019-05-29T07:17:03.804Z,20.10
2019-05-29T07:19:24.819Z,20.30
2019-05-29T07:21:15.123Z,20.30
2019-05-29T07:23:19.969Z,20.50
2019-05-29T07:25:24.831Z,20.60
2019-05-29T07:27:29.784Z,20.70
2019-05-29T07:29:34.571Z,20.90
2019-05-29T07:31:39.400Z,21.00
2019-05-29T07:33:45.245Z,21.00
2019-05-29T07:35:50.171Z,21.10
2019-05-29T07:37:55.315Z,21.10
2019-05-29T07:40:00.552Z,21.30
2019-05-29T07:42:05.341Z,21.50
2019-05-29T07:44:10.100Z,21.50
2019-05-29T07:46:14.918Z,21.60
2019-05-29T07:48:20.032Z,21.60
2019-05-29T07:50:24.883Z,21.60
2019-05-29T07:52:29.717Z,21.60
2019-05-29T07:54:34.805Z,21.60
2019-05-29T07:56:40.378Z,21.70
2019-05-29T07:58:56.553Z,21.80
2019-05-29T08:01:09.989Z,21.80
2019-05-29T08:02:58.390Z,21.70
2019-05-29T08:05:03.698Z,21.60
2019-05-29T08:07:08.937Z,21.70
2019-05-29T08:09:13.733Z,21.80
2019-05-29T08:11:18.544Z,21.80
2019-05-29T08:13:23.663Z,21.80
2019-05-29T08:15:28.478Z,21.90
2019-05-29T08:17:33.817Z,21.80
2019-05-29T08:19:56.429Z,21.80
2019-05-29T08:21:46.490Z,21.80
2019-05-29T08:23:51.441Z,21.70
2019-05-29T08:25:56.172Z,21.70
2019-05-29T08:28:01.000Z,21.60
2019-05-29T08:30:07.383Z,21.60
2019-05-29T08:32:12.531Z,21.60
2019-05-29T08:34:17.335Z,21.40
2019-05-29T08:36:22.175Z,21.40
2019-05-29T08:38:27.044Z,21.40
2019-05-29T08:40:31.819Z,21.30
2019-05-29T08:42:36.568Z,21.20
2019-05-29T08:44:41.442Z,21.30
2019-05-29T08:47:04.206Z,21.20
2019-05-29T08:48:53.193Z,21.20
2019-05-29T08:50:58.620Z,21.10
2019-05-29T08:53:03.464Z,21.10
2019-05-29T08:55:08.682Z,21.10
2019-05-29T08:57:13.515Z,21.00
2019-05-29T08:59:18.337Z,21.00
2019-05-29T09:01:23.547Z,21.00
2019-05-29T09:03:28.326Z,21.00
2019-05-29T09:05:33.522Z,21.00
2019-05-29T09:07:38.411Z,21.00
2019-05-29T09:09:43.214Z,21.00
2019-05-29T09:11:49.863Z,21.00
2019-05-29T09:13:54.513Z,21.00
2019-05-29T09:15:59.326Z,20.80
2019-05-29T09:18:04.229Z,20.80
2019-05-29T09:20:26.087Z,20.80
2019-05-29T09:22:16.511Z,20.70
2019-05-29T09:24:21.518Z,20.70
2019-05-29T09:26:26.306Z,20.60
2019-05-29T09:28:29.259Z,20.70
2019-05-29T09:30:34.107Z,20.60
2019-05-29T09:32:50.587Z,20.70
2019-05-29T09:34:47.641Z,20.80
2019-05-29T09:36:54.657Z,20.80
2019-05-29T09:38:58.702Z,20.70
2019-05-29T09:41:03.885Z,20.60
2019-05-29T09:43:09.076Z,20.60
2019-05-29T09:45:14.967Z,20.70
2019-05-29T09:47:22.210Z,20.70
2019-05-29T09:49:27.122Z,20.60
2019-05-29T09:51:31.967Z,20.60
2019-05-29T09:53:37.107Z,20.60
2019-05-29T09:55:42.389Z,20.70
2019-05-29T09:57:47.223Z,20.80
2019-05-29T09:59:53.760Z,20.80
2019-05-29T10:02:02.443Z,20.90
2019-05-29T10:04:06.226Z,20.80
2019-05-29T10:06:11.276Z,20.90
2019-05-29T10:08:17.058Z,20.90
2019-05-29T10:10:25.340Z,20.80
2019-05-29T10:12:30.106Z,20.70
2019-05-29T10:14:35.014Z,20.70
2019-05-29T10:16:39.804Z,20.60
2019-05-29T10:18:44.773Z,20.60
2019-05-29T10:20:50.113Z,20.70
2019-05-29T10:22:55.689Z,20.70
2019-05-29T10:25:02.002Z,20.70
2019-05-29T10:27:07.368Z,20.80
2019-05-29T10:29:12.445Z,20.90
2019-05-29T10:31:17.290Z,20.90
2019-05-29T10:33:21.970Z,20.90
2019-05-29T10:35:27.006Z,21.00
2019-05-29T10:37:31.852Z,21.00
2019-05-29T10:39:37.023Z,21.00
2019-05-29T10:41:42.671Z,20.80
2019-05-29T10:43:47.443Z,20.80
2019-05-29T10:45:53.887Z,20.80
2019-05-29T10:48:01.551Z,20.50
2019-05-29T10:50:07.176Z,20.50
2019-05-29T10:52:16.602Z,20.60
2019-05-29T10:54:18.560Z,20.60
2019-05-29T10:56:23.728Z,20.40
2019-05-29T10:58:28.973Z,20.50
2019-05-29T11:00:33.708Z,20.50
2019-05-29T11:02:38.935Z,20.50
2019-05-29T11:04:47.581Z,20.50
2019-05-29T11:06:50.290Z,20.60
2019-05-29T11:08:56.367Z,20.70
2019-05-29T11:11:01.264Z,20.60
2019-05-29T11:13:06.954Z,20.60
2019-05-29T11:15:21.584Z,20.70
2019-05-29T11:17:18.712Z,20.70
2019-05-29T11:19:26.082Z,20.80
2019-05-29T11:21:30.005Z,20.70
2019-05-29T11:23:34.834Z,20.70
2019-05-29T11:25:39.585Z,20.60
2019-05-29T11:27:44.459Z,20.60
2019-05-29T11:29:50.460Z,20.70
2019-05-29T11:31:55.350Z,20.70
2019-05-29T11:34:00.194Z,20.80
2019-05-29T11:36:10.701Z,20.80
2019-05-29T11:38:11.840Z,20.70
2019-05-29T11:40:16.891Z,20.70
2019-05-29T11:42:27.414Z,20.70
2019-05-29T11:44:28.790Z,20.90
2019-05-29T11:46:33.642Z,21.00
2019-05-29T11:48:38.418Z,21.00
2019-05-29T11:50:43.611Z,21.00
2019-05-29T11:52:48.402Z,21.00
2019-05-29T11:54:56.538Z,20.70
2019-05-29T11:56:59.826Z,20.60
2019-05-29T11:59:05.034Z,20.60
2019-05-29T12:01:09.877Z,20.80
2019-05-29T12:03:14.730Z,20.90
2019-05-29T12:05:19.801Z,21.00
2019-05-29T12:07:24.636Z,21.00
2019-05-29T12:09:33.259Z,21.00
2019-05-29T12:11:36.331Z,21.10
2019-05-29T12:13:41.087Z,21.10
2019-05-29T12:15:45.854Z,21.20
2019-05-29T12:18:05.763Z,21.00
2019-05-29T12:19:59.870Z,20.90
2019-05-29T12:22:03.767Z,20.80
2019-05-29T12:24:08.594Z,20.80
2019-05-29T12:26:22.378Z,20.70
2019-05-29T12:28:19.816Z,20.80
2019-05-29T12:30:25.519Z,21.00
2019-05-29T12:32:30.399Z,21.10
2019-05-29T12:34:35.834Z,21.10
2019-05-29T12:36:41.005Z,21.10
2019-05-29T12:38:45.770Z,21.20
2019-05-29T12:40:53.338Z,21.30
2019-05-29T12:43:01.839Z,21.40
2019-05-29T12:45:07.687Z,21.40
2019-05-29T12:47:13.013Z,21.40
2019-05-29T12:49:17.798Z,21.40
2019-05-29T12:51:23.795Z,21.50
2019-05-29T12:53:31.190Z,21.60
2019-05-29T12:55:35.544Z,21.50
2019-05-29T12:57:40.758Z,21.50
2019-05-29T12:59:45.551Z,21.60
2019-05-29T13:01:50.357Z,21.60
2019-05-29T13:03:58.628Z,21.70
2019-05-29T13:06:04.485Z,21.70
2019-05-29T13:08:09.566Z,21.70
2019-05-29T13:10:29.408Z,21.70
2019-05-29T13:12:21.253Z,21.70
2019-05-29T13:14:26.404Z,21.70
2019-05-29T13:16:31.186Z,21.80
2019-05-29T13:18:35.998Z,21.70
2019-05-29T13:20:40.851Z,21.70
2019-05-29T13:22:46.038Z,21.80
2019-05-29T13:24:52.686Z,21.70
2019-05-29T13:26:57.615Z,21.60
2019-05-29T13:29:03.824Z,21.70
2019-05-29T13:31:09.188Z,21.80
2019-05-29T13:33:14.374Z,21.90
2019-05-29T13:35:22.465Z,21.90
2019-05-29T13:37:27.590Z,21.90
2019-05-29T13:39:32.332Z,21.90
2019-05-29T13:41:37.103Z,21.90
2019-05-29T13:43:41.893Z,21.90
2019-05-29T13:45:46.996Z,22.00
2019-05-29T13:47:55.033Z,22.00
2019-05-29T13:50:04.371Z,22.00
2019-05-29T13:52:12.214Z,22.00
2019-05-29T13:54:18.003Z,22.00
2019-05-29T13:56:24.275Z,22.00
2019-05-29T13:58:28.823Z,21.90
2019-05-29T14:00:34.937Z,21.90
2019-05-29T14:02:40.103Z,21.90
2019-05-29T14:04:45.279Z,21.90
2019-05-29T14:06:52.950Z,21.80
2019-05-29T14:08:58.762Z,21.80
2019-05-29T14:11:04.967Z,21.80
2019-05-29T14:13:10.039Z,21.80
2019-05-29T14:15:15.070Z,21.90
2019-05-29T14:17:19.886Z,21.80
2019-05-29T14:19:25.086Z,21.80
2019-05-29T14:21:29.867Z,21.80
2019-05-29T14:23:39.178Z,21.80
2019-05-29T14:25:41.848Z,21.80
2019-05-29T14:27:47.126Z,21.80
2019-05-29T14:29:52.022Z,21.80
2019-05-29T14:31:57.160Z,21.80
2019-05-29T14:34:03.045Z,21.80
2019-05-29T14:36:07.883Z,21.80
2019-05-29T14:38:15.044Z,21.60
2019-05-29T14:40:19.787Z,21.60
2019-05-29T14:42:24.561Z,21.40
2019-05-29T14:44:29.354Z,21.40
2019-05-29T14:46:34.146Z,21.40
2019-05-29T14:48:38.918Z,21.40
2019-05-29T14:50:43.942Z,21.50
2019-05-29T14:52:49.290Z,21.50
2019-05-29T14:54:55.154Z,21.40
2019-05-29T14:57:00.206Z,21.40
2019-05-29T14:59:07.446Z,21.50
2019-05-29T15:01:13.328Z,21.50
2019-05-29T15:03:18.291Z,21.60
2019-05-29T15:05:23.612Z,21.60
2019-05-29T15:07:29.445Z,21.50
2019-05-29T15:09:34.567Z,21.50
2019-05-29T15:11:39.719Z,21.50
2019-05-29T15:13:44.534Z,21.50
2019-05-29T15:15:49.460Z,21.50
2019-05-29T15:17:54.194Z,21.50
2019-05-29T15:19:58.958Z,21.50
2019-05-29T15:22:04.979Z,21.50
2019-05-29T15:24:10.021Z,21.50
2019-05-29T15:26:15.736Z,21.50
2019-05-29T15:28:20.674Z,21.50
2019-05-29T15:30:25.481Z,21.50
2019-05-29T15:32:30.209Z,21.50
2019-05-29T15:34:35.377Z,21.50
2019-05-29T15:36:41.018Z,21.40
2019-05-29T15:38:45.807Z,21.40
2019-05-29T15:40:51.095Z,21.50
2019-05-29T15:42:56.256Z,21.40
2019-05-29T15:45:01.086Z,21.40
2019-05-29T15:47:06.879Z,21.40
2019-05-29T15:49:12.941Z,21.40
2019-05-29T15:51:21.637Z,21.40
2019-05-29T15:53:24.555Z,21.40
2019-05-29T15:55:34.678Z,21.40
2019-05-29T15:57:36.187Z,21.40
2019-05-29T15:59:41.455Z,21.30
2019-05-29T16:01:46.735Z,21.30
2019-05-29T16:03:51.602Z,21.20
2019-05-29T16:05:56.490Z,21.20
2019-05-29T16:08:01.320Z,21.20
2019-05-29T16:10:08.138Z,21.30
2019-05-29T16:12:14.652Z,21.30
2019-05-29T16:14:19.659Z,21.20
2019-05-29T16:16:25.389Z,21.20
2019-05-29T16:18:30.266Z,21.20
2019-05-29T16:20:35.251Z,21.10
2019-05-29T16:22:40.110Z,21.10
2019-05-29T16:24:45.333Z,21.10
2019-05-29T16:26:50.168Z,21.10
2019-05-29T16:28:55.103Z,21.10
2019-05-29T16:31:00.267Z,21.00
2019-05-29T16:33:05.234Z,21.00
2019-05-29T16:35:11.186Z,21.10
2019-05-29T16:37:17.297Z,21.10
2019-05-29T16:39:22.738Z,21.00
2019-05-29T16:41:27.802Z,21.10
2019-05-29T16:43:32.985Z,21.00
2019-05-29T16:45:37.753Z,21.00
2019-05-29T16:47:42.771Z,21.00
2019-05-29T16:49:47.525Z,21.00
2019-05-29T16:51:52.399Z,21.00
2019-05-29T16:53:57.256Z,20.90
2019-05-29T16:56:02.072Z,20.90
2019-05-29T16:58:06.923Z,20.90
2019-05-29T17:00:13.549Z,20.90
2019-05-29T17:02:19.654Z,21.00
2019-05-29T17:04:25.298Z,21.00
2019-05-29T17:06:30.076Z,20.90
2019-05-29T17:08:34.964Z,20.90
2019-05-29T17:10:40.133Z,20.80
2019-05-29T17:12:45.102Z,20.80
2019-05-29T17:14:50.298Z,20.80
2019-05-29T17:16:55.454Z,20.70
2019-05-29T17:19:01.397Z,20.70
2019-05-29T17:21:06.357Z,20.70
2019-05-29T17:23:11.938Z,20.70
2019-05-29T17:25:18.857Z,20.70
2019-05-29T17:27:25.067Z,20.70
2019-05-29T17:29:30.100Z,20.60
2019-05-29T17:31:35.056Z,20.60
2019-05-29T17:33:39.940Z,20.60
2019-05-29T17:35:44.684Z,20.60
2019-05-29T17:37:49.729Z,20.60
2019-05-29T17:39:54.555Z,20.50
2019-05-29T17:42:00.025Z,20.50
2019-05-29T17:44:05.038Z,20.40
2019-05-29T17:46:10.244Z,20.40
2019-05-29T17:48:15.514Z,20.40
2019-05-29T17:50:22.919Z,20.40
2019-05-29T17:52:26.980Z,20.40
2019-05-29T17:54:32.485Z,20.30
2019-05-29T17:56:37.794Z,20.30
2019-05-29T17:58:43.123Z,20.30
2019-05-29T18:00:48.867Z,20.40
2019-05-29T18:02:53.856Z,20.30
2019-05-29T18:04:58.833Z,20.30
2019-05-29T18:07:03.886Z,20.30
2019-05-29T18:09:09.068Z,20.30
2019-05-29T18:11:14.119Z,20.20
2019-05-29T18:13:19.084Z,20.20
2019-05-29T18:15:25.624Z,20.20
2019-05-29T18:17:30.915Z,20.20
2019-05-29T18:19:35.749Z,20.20
2019-05-29T18:21:40.901Z,20.10
2019-05-29T18:23:45.648Z,20.00
2019-05-29T18:25:50.555Z,20.00
2019-05-29T18:27:55.769Z,19.90
2019-05-29T18:30:00.564Z,19.90
2019-05-29T18:32:05.646Z,19.90
2019-05-29T18:34:10.578Z,19.90
2019-05-29T18:36:15.915Z,19.90
2019-05-29T18:38:22.286Z,19.90
2019-05-29T18:40:28.374Z,19.90
2019-05-29T18:42:33.741Z,19.80
2019-05-29T18:44:38.630Z,19.70
2019-05-29T18:46:43.376Z,19.60
2019-05-29T18:48:48.321Z,19.50
2019-05-29T18:50:53.083Z,19.50
2019-05-29T18:52:57.889Z,19.40
2019-05-29T18:55:03.469Z,19.40
2019-05-29T18:57:15.257Z,19.20
2019-05-29T18:59:15.099Z,19.20
2019-05-29T19:01:21.452Z,19.10
2019-05-29T19:03:27.520Z,19.00
2019-05-29T19:05:32.786Z,18.90
2019-05-29T19:07:37.760Z,18.80
2019-05-29T19:09:42.589Z,18.70
2019-05-29T19:11:47.623Z,18.60
2019-05-29T19:13:52.958Z,18.50
2019-05-29T19:15:57.866Z,18.50
2019-05-29T19:18:03.173Z,18.50
2019-05-29T19:20:09.340Z,18.40
2019-05-29T19:22:14.411Z,18.40
2019-05-29T19:24:19.892Z,18.30
2019-05-29T19:26:24.791Z,18.20
2019-05-29T19:28:30.722Z,18.20
2019-05-29T19:30:44.075Z,18.20
2019-05-29T19:32:51.434Z,18.20
2019-05-29T19:34:57.831Z,18.20
2019-05-29T19:37:02.720Z,18.10
2019-05-29T19:39:11.197Z,18.00
2019-05-29T19:41:20.545Z,18.00
2019-05-29T19:43:26.253Z,17.90
2019-05-29T19:45:32.605Z,17.80
2019-05-29T19:47:37.563Z,17.80
2019-05-29T19:49:43.125Z,17.70
2019-05-29T19:51:47.956Z,17.70
2019-05-29T19:53:52.666Z,17.60
2019-05-29T19:55:59.430Z,17.50
2019-05-29T19:58:04.311Z,17.50
2019-05-29T20:00:09.795Z,17.50
2019-05-29T20:02:15.138Z,17.40
2019-05-29T20:04:20.290Z,17.30
2019-05-29T20:06:28.766Z,17.30
2019-05-29T20:08:36.254Z,17.30
2019-05-29T20:10:41.067Z,17.20
2019-05-29T20:12:46.038Z,17.20
2019-05-29T20:14:50.893Z,17.10
2019-05-29T20:16:56.189Z,17.10
2019-05-29T20:19:02.127Z,17.10
2019-05-29T20:21:06.898Z,17.00
2019-05-29T20:23:12.509Z,17.00
2019-05-29T20:25:17.828Z,17.10
2019-05-29T20:27:22.913Z,17.10
2019-05-29T20:29:27.755Z,17.00
2019-05-29T20:31:34.467Z,16.90
2019-05-29T20:33:42.740Z,16.90
2019-05-29T20:35:47.745Z,16.90
2019-05-29T20:37:53.719Z,16.80
2019-05-29T20:39:59.005Z,16.80
2019-05-29T20:42:04.388Z,16.80
2019-05-29T20:44:10.541Z,16.70
2019-05-29T20:46:15.849Z,16.70
2019-05-29T20:48:21.169Z,16.60
2019-05-29T20:50:26.125Z,16.60
2019-05-29T20:52:31.242Z,16.60
2019-05-29T20:54:37.672Z,16.60
2019-05-29T20:56:42.645Z,16.60
2019-05-29T20:58:47.893Z,16.50
2019-05-29T21:00:54.367Z,16.40
2019-05-29T21:03:07.054Z,16.40
2019-05-29T21:05:12.115Z,16.40
2019-05-29T21:07:17.209Z,16.40
2019-05-29T21:09:22.703Z,16.30
2019-05-29T21:11:27.611Z,16.40
2019-05-29T21:13:33.315Z,16.40
2019-05-29T21:15:38.135Z,16.30
2019-05-29T21:17:44.069Z,16.20
2019-05-29T21:19:49.066Z,16.20
2019-05-29T21:21:53.892Z,16.10
2019-05-29T21:23:58.902Z,16.00
2019-05-29T21:26:03.739Z,16.00
2019-05-29T21:28:08.568Z,15.90
2019-05-29T21:30:13.971Z,15.80
2019-05-29T21:32:19.639Z,15.80
2019-05-29T21:34:24.569Z,15.70
2019-05-29T21:36:29.389Z,15.70
2019-05-29T21:38:34.213Z,15.60
2019-05-29T21:40:40.301Z,15.60
2019-05-29T21:42:45.220Z,15.60
2019-05-29T21:44:50.085Z,15.60
2019-05-29T21:46:55.434Z,15.40
2019-05-29T21:49:00.673Z,15.40
2019-05-29T21:51:05.878Z,15.40
2019-05-29T21:53:11.133Z,15.40
2019-05-29T21:55:17.027Z,15.50
2019-05-29T21:57:21.912Z,15.50
2019-05-29T21:59:26.840Z,15.60
2019-05-29T22:01:31.971Z,15.60
2019-05-29T22:03:38.225Z,15.60
2019-05-29T22:05:43.198Z,15.60
2019-05-29T22:07:48.966Z,15.70
2019-05-29T22:09:54.464Z,15.70
2019-05-29T22:12:00.508Z,15.70
2019-05-29T22:14:05.811Z,15.80
2019-05-29T22:16:10.775Z,15.70
2019-05-29T22:18:15.594Z,15.80
2019-05-29T22:20:20.566Z,15.80
2019-05-29T22:22:25.554Z,15.80
2019-05-29T22:24:30.357Z,15.80
2019-05-29T22:26:35.098Z,15.80
2019-05-29T22:28:39.844Z,15.80
2019-05-29T22:30:44.668Z,15.90
2019-05-29T22:32:49.555Z,15.90
2019-05-29T22:34:55.432Z,15.90
2019-05-29T22:37:00.264Z,15.90
2019-05-29T22:39:06.396Z,15.90
2019-05-29T22:41:11.208Z,15.90
2019-05-29T22:43:15.977Z,15.90
2019-05-29T22:45:20.802Z,16.00
2019-05-29T22:47:25.635Z,16.00
2019-05-29T22:49:30.444Z,16.00
2019-05-29T22:51:36.373Z,16.10
2019-05-29T22:53:41.165Z,16.20
2019-05-29T22:55:45.948Z,16.20
2019-05-29T22:57:51.833Z,16.20
2019-05-29T22:59:57.872Z,16.30
2019-05-29T23:02:02.705Z,16.30
2019-05-29T23:04:07.758Z,16.40
2019-05-29T23:06:12.567Z,16.40
2019-05-29T23:08:17.378Z,16.40
2019-05-29T23:10:22.197Z,16.40
2019-05-29T23:12:26.964Z,16.30
2019-05-29T23:14:31.864Z,16.40
2019-05-29T23:16:36.680Z,16.40
2019-05-29T23:18:42.099Z,16.40
2019-05-29T23:20:47.018Z,16.40
2019-05-29T23:22:52.583Z,16.40
2019-05-29T23:24:58.722Z,16.40
2019-05-29T23:27:04.211Z,16.40
2019-05-29T23:29:09.004Z,16.40
2019-05-29T23:31:13.814Z,16.40
2019-05-29T23:33:18.597Z,16.40
2019-05-29T23:35:23.407Z,16.40
2019-05-29T23:37:28.215Z,16.40
2019-05-29T23:39:33.322Z,16.40
2019-05-29T23:41:38.136Z,16.30
2019-05-29T23:43:42.970Z,16.40
2019-05-29T23:45:48.099Z,16.40
2019-05-29T23:47:53.392Z,16.50
2019-05-29T23:49:59.615Z,16.40
2019-05-29T23:52:05.048Z,16.50
2019-05-29T23:54:10.328Z,16.50
2019-05-29T23:56:16.248Z,16.50
2019-05-29T23:58:21.106Z,16.50
